Terminal Aerodrome Forecast
Issued by NWS

Home | Current Version | Previous Version | Text Only | Print | Product List | Glossary On
Versions: 1 2 3 4 5 6 7 8 9 10 11
156
FTUS46 KLOX 241724
TAFPMD
TAF
KPMD 241724Z 2418/2518 29020G30KT P6SM BKN200
     FM242000 28025G35KT P6SM BKN200
     FM250600 28020G30KT P6SM BKN200=

USA.gov is the U.S. government's official web portal to all federal, state and local government web resources and services.